Time;durP1;ratioP1;P1;durP2;ratioP2;P2;SDS_P1;SDS_P2;PMS_P1;PMS_P2;Temp;Humidity;BMP_temperature;BMP_pressure;BME280_temperature;BME280_humidity;BME280_pressure;Samples;Min_cycle;Max_cycle;Signal;HPM_P1;HPM_P2
2021/05/29 00:02:20;;;;;;;4.60;2.70;;;;;;;16.25;61.42;96832.50;4988120;28;20573;-63
2021/05/29 00:04:45;;;;;;;3.07;2.33;;;;;;;16.26;61.85;96840.22;4976349;28;20747;-58
2021/05/29 00:07:11;;;;;;;2.90;2.80;;;;;;;16.18;62.54;96831.88;4981814;28;20178;-61
2021/05/29 00:09:37;;;;;;;2.80;2.60;;;;;;;16.22;62.53;96820.53;4971470;28;20178;-59
2021/05/29 00:12:05;;;;;;;2.30;2.20;;;;;;;16.15;63.11;96822.59;4976096;28;20166;-59
2021/05/29 00:14:32;;;;;;;3.23;2.70;;;;;;;16.16;63.37;96823.41;4977107;28;20425;-59
2021/05/29 00:16:58;;;;;;;2.43;2.33;;;;;;;16.12;63.26;96819.63;4995669;28;20405;-61
2021/05/29 00:19:23;;;;;;;3.00;2.80;;;;;;;15.82;65.60;96820.09;4995504;28;20420;-60
2021/05/29 00:21:48;;;;;;;3.80;2.40;;;;;;;15.90;64.82;96822.31;4979585;28;20181;-61
2021/05/29 00:24:14;;;;;;;3.03;2.83;;;;;;;15.81;65.27;96826.44;4988501;28;20665;-61
2021/05/29 00:26:41;;;;;;;2.97;2.77;;;;;;;15.79;65.49;96822.44;4993569;28;20256;-58
2021/05/29 00:29:07;;;;;;;2.90;2.70;;;;;;;15.90;64.29;96803.75;4995305;28;20273;-61
2021/05/29 00:31:32;;;;;;;6.17;2.50;;;;;;;15.82;64.32;96790.94;4978797;28;20421;-61
2021/05/29 00:33:58;;;;;;;2.90;2.70;;;;;;;15.91;64.51;96793.94;4992460;28;20197;-61
2021/05/29 00:36:23;;;;;;;2.90;2.63;;;;;;;15.94;63.26;96799.53;4980829;28;20248;-58
2021/05/29 00:38:49;;;;;;;3.27;2.63;;;;;;;16.03;62.32;96794.63;4975942;28;20178;-61
2021/05/29 00:41:16;;;;;;;2.93;2.70;;;;;;;16.05;62.27;96800.47;4988044;28;20265;-61
2021/05/29 00:43:43;;;;;;;2.47;2.27;;;;;;;15.99;61.93;96791.66;4994579;28;20209;-59
2021/05/29 00:46:09;;;;;;;3.60;2.30;;;;;;;15.97;62.45;96785.81;4983787;28;20939;-61
2021/05/29 00:48:35;;;;;;;2.63;2.40;;;;;;;15.93;62.30;96791.84;4983232;28;20969;-58
2021/05/29 00:51:05;;;;;;;2.40;2.20;;;;;;;16.01;61.91;96792.22;4982153;28;20436;-59
2021/05/29 00:53:32;;;;;;;2.00;1.90;;;;;;;15.87;62.61;96784.91;4977186;28;20452;-61
2021/05/29 00:55:59;;;;;;;2.50;2.30;;;;;;;15.93;62.21;96784.69;4995071;28;20443;-58
2021/05/29 00:58:25;;;;;;;2.37;2.27;;;;;;;15.98;62.22;96786.63;4976110;28;20844;-60
2021/05/29 01:00:52;;;;;;;2.43;2.23;;;;;;;16.06;62.56;96781.66;4975283;28;20473;-58
2021/05/29 01:03:17;;;;;;;4.10;2.40;;;;;;;16.11;62.38;96780.91;4975994;28;20967;-59
2021/05/29 01:05:44;;;;;;;2.77;2.57;;;;;;;16.09;62.91;96777.69;4983730;28;20433;-58
2021/05/29 01:08:10;;;;;;;2.23;2.10;;;;;;;16.05;63.31;96771.31;4978590;28;20185;-61
2021/05/29 01:10:37;;;;;;;2.80;2.60;;;;;;;16.03;62.72;96776.06;4994579;28;20416;-58
2021/05/29 01:13:06;;;;;;;3.20;2.50;;;;;;;16.01;62.29;96776.31;4992030;28;20288;-59
2021/05/29 01:15:41;;;;;;;2.73;2.20;;;;;;;16.00;63.15;96780.00;4975247;28;20410;-58
2021/05/29 01:18:11;;;;;;;2.80;2.60;;;;;;;15.99;63.47;96780.25;4980616;28;20420;-60
2021/05/29 01:20:37;;;;;;;2.87;2.40;;;;;;;15.94;64.34;96780.22;4982958;28;20421;-58
2021/05/29 01:23:03;;;;;;;3.30;3.10;;;;;;;15.88;65.17;96773.22;4979333;28;20514;-60
2021/05/29 01:25:36;;;;;;;3.33;3.03;;;;;;;15.92;64.54;96784.94;4994319;28;20460;-59
2021/05/29 01:28:05;;;;;;;3.60;2.87;;;;;;;15.87;64.79;96782.25;4992525;28;20639;-58
2021/05/29 01:30:34;;;;;;;2.50;2.40;;;;;;;15.86;64.59;96781.44;4992769;28;20416;-58
2021/05/29 01:33:00;;;;;;;2.63;2.53;;;;;;;15.85;64.52;96781.69;4992109;28;20444;-61
2021/05/29 01:35:26;;;;;;;3.33;2.90;;;;;;;15.84;64.79;96780.06;4994484;28;20459;-59
2021/05/29 01:37:53;;;;;;;2.70;2.60;;;;;;;15.81;64.54;96788.53;4976873;28;20189;-61
2021/05/29 01:40:19;;;;;;;2.53;2.33;;;;;;;15.73;65.33;96787.13;4974812;28;20256;-61
2021/05/29 01:42:44;;;;;;;2.80;2.60;;;;;;;15.68;65.59;96779.09;4989740;28;20875;-61
2021/05/29 01:45:10;;;;;;;2.80;2.60;;;;;;;15.72;65.41;96792.66;4990330;28;20202;-61
2021/05/29 01:47:42;;;;;;;4.33;2.63;;;;;;;15.64;65.78;96785.13;4992061;28;20184;-61
2021/05/29 01:50:09;;;;;;;2.80;2.60;;;;;;;15.48;66.96;96784.16;4994395;28;20476;-59
2021/05/29 01:52:47;;;;;;;3.20;3.00;;;;;;;15.35;67.89;96787.13;4976174;28;20504;-60
2021/05/29 01:55:13;;;;;;;3.03;2.57;;;;;;;15.25;68.69;96784.34;4987881;28;20426;-60
2021/05/29 01:57:39;;;;;;;2.90;2.70;;;;;;;15.36;67.96;96784.22;4974726;28;20413;-61
2021/05/29 02:00:05;;;;;;;3.10;2.80;;;;;;;15.32;68.60;96784.97;4975505;28;20429;-58
2021/05/29 02:02:30;;;;;;;2.97;2.77;;;;;;;15.40;68.22;96781.88;4974215;28;20530;-60
2021/05/29 02:04:55;;;;;;;2.60;2.40;;;;;;;15.30;68.21;96787.88;4983825;28;20468;-59
2021/05/29 02:07:23;;;;;;;2.80;2.70;;;;;;;15.30;68.09;96785.22;4994141;28;20173;-58
2021/05/29 02:09:48;;;;;;;2.83;2.63;;;;;;;15.34;67.69;96786.31;4980397;28;20193;-60
2021/05/29 02:12:14;;;;;;;3.30;2.80;;;;;;;15.41;67.92;96789.66;4983624;28;20919;-60
2021/05/29 02:14:39;;;;;;;10.07;3.20;;;;;;;15.43;67.54;96786.75;4982952;28;20194;-58
2021/05/29 02:17:05;;;;;;;3.13;2.93;;;;;;;15.40;67.82;96788.03;4986891;28;20185;-58
2021/05/29 02:19:30;;;;;;;2.80;2.60;;;;;;;15.41;67.81;96783.53;4986003;28;20268;-59
2021/05/29 02:21:55;;;;;;;3.57;3.33;;;;;;;15.34;67.75;96790.84;4974071;28;20174;-61
2021/05/29 02:24:21;;;;;;;3.27;2.97;;;;;;;15.34;67.06;96788.97;4982148;28;20216;-63
2021/05/29 02:26:46;;;;;;;3.10;2.50;;;;;;;15.32;67.14;96790.28;4993739;28;20253;-61
2021/05/29 02:29:12;;;;;;;2.90;2.60;;;;;;;15.26;67.61;96788.59;4993705;28;20365;-61
2021/05/29 02:31:37;;;;;;;2.90;2.70;;;;;;;15.24;68.09;96793.31;4993495;28;20625;-61
2021/05/29 02:34:02;;;;;;;3.20;2.90;;;;;;;15.24;68.58;96798.63;4993603;28;20268;-61
2021/05/29 02:36:28;;;;;;;3.33;2.97;;;;;;;15.21;68.08;96796.47;4993687;28;20253;-58
2021/05/29 02:38:53;;;;;;;2.83;2.60;;;;;;;15.15;68.98;96797.44;4983816;28;20586;-60
2021/05/29 02:41:18;;;;;;;3.10;2.90;;;;;;;15.23;68.53;96794.38;4977875;28;20702;-60
2021/05/29 02:43:44;;;;;;;2.90;2.67;;;;;;;15.11;69.00;96796.34;4978647;28;20289;-61
2021/05/29 02:46:10;;;;;;;3.50;3.30;;;;;;;15.17;68.50;96790.88;4986262;28;20178;-60
2021/05/29 02:48:36;;;;;;;3.03;2.83;;;;;;;15.19;68.14;96791.44;4984627;28;20184;-58
2021/05/29 02:51:02;;;;;;;2.97;2.77;;;;;;;15.15;67.83;96795.59;4997043;28;20455;-58
2021/05/29 02:53:28;;;;;;;3.50;2.80;;;;;;;15.13;68.17;96799.53;4987700;28;20485;-58
2021/05/29 02:55:53;;;;;;;3.13;2.60;;;;;;;15.11;68.17;96797.13;4997283;28;20181;-59
2021/05/29 02:58:18;;;;;;;2.90;2.70;;;;;;;15.03;68.60;96796.75;4997256;28;20216;-58
2021/05/29 03:00:46;;;;;;;3.10;2.90;;;;;;;15.04;68.33;96793.84;4996339;28;20204;-60
2021/05/29 03:03:13;;;;;;;3.50;2.93;;;;;;;15.05;68.76;96798.13;4996541;28;20239;-60
2021/05/29 03:05:46;;;;;;;3.07;2.87;;;;;;;15.04;68.73;96804.44;4984803;28;20461;-61
2021/05/29 03:08:14;;;;;;;3.10;2.90;;;;;;;15.04;68.86;96804.44;4982081;28;20452;-60
2021/05/29 03:10:44;;;;;;;2.93;2.73;;;;;;;14.94;68.71;96804.28;4986919;28;20427;-58
2021/05/29 03:13:10;;;;;;;2.70;2.50;;;;;;;14.93;68.71;96804.53;4982688;28;20437;-58
2021/05/29 03:15:36;;;;;;;3.17;3.00;;;;;;;14.84;69.27;96806.00;4994774;28;21028;-59
2021/05/29 03:18:04;;;;;;;4.30;3.10;;;;;;;14.81;69.61;96814.38;4985794;28;20181;-60
2021/05/29 03:20:30;;;;;;;2.40;2.20;;;;;;;14.75;69.96;96816.16;4996813;28;20413;-60
2021/05/29 03:22:56;;;;;;;3.47;2.87;;;;;;;14.61;70.78;96816.69;4984668;28;20468;-58
2021/05/29 03:25:21;;;;;;;6.40;3.37;;;;;;;14.69;69.99;96816.31;4985141;28;20289;-58
2021/05/29 03:27:50;;;;;;;2.87;2.67;;;;;;;14.65;70.21;96821.28;4996298;28;20519;-58
2021/05/29 03:30:17;;;;;;;2.77;2.57;;;;;;;14.56;70.81;96816.63;4996513;28;20549;-58
2021/05/29 03:32:43;;;;;;;3.00;2.80;;;;;;;14.48;70.69;96827.56;4994107;28;20455;-60
2021/05/29 03:35:10;;;;;;;3.23;2.93;;;;;;;14.27;71.39;96829.88;4987222;28;20418;-60
2021/05/29 03:37:38;;;;;;;4.47;3.17;;;;;;;14.35;71.50;96837.41;4977353;28;20418;-58
2021/05/29 03:40:06;;;;;;;3.27;2.97;;;;;;;14.39;71.20;96833.28;4985077;28;20784;-58
2021/05/29 03:42:34;;;;;;;3.03;2.83;;;;;;;14.26;72.00;96833.56;4976498;28;20421;-59
2021/05/29 03:45:13;;;;;;;3.60;3.30;;;;;;;14.38;71.22;96850.16;4976454;28;20457;-60
2021/05/29 03:47:44;;;;;;;3.30;3.10;;;;;;;14.44;70.96;96840.47;4976502;28;20414;-58
2021/05/29 03:50:13;;;;;;;4.13;3.73;;;;;;;14.39;71.77;96833.28;4976521;28;20406;-61
2021/05/29 03:52:42;;;;;;;3.67;3.40;;;;;;;14.36;71.45;96836.41;4976154;28;20414;-60
2021/05/29 03:55:09;;;;;;;4.17;3.30;;;;;;;14.46;71.72;96841.03;4995809;28;20417;-59
2021/05/29 03:57:35;;;;;;;3.60;3.30;;;;;;;14.48;71.07;96844.25;4995975;28;20452;-60
2021/05/29 04:00:00;;;;;;;3.50;3.23;;;;;;;14.46;71.07;96837.63;4993146;28;20457;-60
2021/05/29 04:02:26;;;;;;;3.60;3.30;;;;;;;14.54;70.96;96843.31;4975991;28;20201;-60
2021/05/29 04:04:51;;;;;;;3.50;3.20;;;;;;;14.63;70.24;96841.88;4977112;28;20796;-58
2021/05/29 04:07:16;;;;;;;3.83;3.53;;;;;;;14.64;70.38;96834.75;4981068;28;20186;-60
2021/05/29 04:09:42;;;;;;;3.43;3.23;;;;;;;14.58;71.17;96844.44;4994218;28;20182;-58
2021/05/29 04:12:08;;;;;;;3.60;3.30;;;;;;;14.63;70.74;96846.34;4976278;28;20189;-60
2021/05/29 04:14:34;;;;;;;3.90;3.30;;;;;;;14.61;70.75;96851.91;4976219;28;20192;-60
2021/05/29 04:17:00;;;;;;;3.53;3.23;;;;;;;14.63;70.92;96849.00;4989994;28;20440;-58
2021/05/29 04:19:26;;;;;;;4.00;3.70;;;;;;;14.67;70.79;96855.44;4975882;28;20794;-59
2021/05/29 04:21:51;;;;;;;3.90;3.60;;;;;;;14.76;70.43;96846.88;4976859;28;20783;-60
2021/05/29 04:24:16;;;;;;;4.37;4.00;;;;;;;14.81;69.76;96854.06;4986619;28;20288;-60
2021/05/29 04:26:42;;;;;;;3.87;3.57;;;;;;;14.64;71.48;96856.69;4975895;28;20182;-60
2021/05/29 04:29:07;;;;;;;3.77;3.40;;;;;;;14.75;71.13;96855.03;4976015;28;20173;-58
2021/05/29 04:31:32;;;;;;;3.27;3.07;;;;;;;14.66;71.68;96859.09;4987561;28;20696;-60
2021/05/29 04:33:58;;;;;;;4.23;3.83;;;;;;;14.78;71.08;96857.22;4979357;28;20265;-60
2021/05/29 04:36:23;;;;;;;4.30;3.97;;;;;;;14.91;70.39;96857.69;4994406;28;20181;-60
2021/05/29 04:38:48;;;;;;;3.50;3.20;;;;;;;14.96;70.04;96863.06;4993950;28;20209;-58
2021/05/29 04:41:14;;;;;;;4.00;3.70;;;;;;;15.00;69.76;96858.88;4996340;28;20173;-60
2021/05/29 04:43:39;;;;;;;4.83;4.27;;;;;;;15.03;70.13;96860.25;4959113;28;20225;-58
2021/05/29 04:46:05;;;;;;;4.13;3.73;;;;;;;15.07;70.43;96861.38;4977891;28;20199;-60
2021/05/29 04:48:30;;;;;;;3.90;3.53;;;;;;;15.06;70.21;96867.72;4993546;28;20231;-60
2021/05/29 04:53:44;;;;;;;3.83;3.53;;;;;;;15.06;70.35;96871.16;4987136;28;20267;-60
2021/05/29 04:56:10;;;;;;;4.03;3.73;;;;;;;15.13;70.33;96861.22;4975552;28;20397;-58
2021/05/29 04:58:37;;;;;;;4.40;4.10;;;;;;;15.16;70.40;96858.06;4975315;28;20418;-60
2021/05/29 05:01:09;;;;;;;4.73;4.43;;;;;;;15.23;70.40;96861.38;4979246;28;20426;-60
2021/05/29 05:03:36;;;;;;;4.10;3.80;;;;;;;15.29;69.87;96862.25;4994533;28;20807;-58
2021/05/29 05:06:02;;;;;;;4.93;4.53;;;;;;;15.31;69.55;96863.59;4978301;28;20947;-60
2021/05/29 05:08:28;;;;;;;3.63;3.43;;;;;;;15.30;69.28;96855.91;4975487;28;20417;-58
2021/05/29 05:10:55;;;;;;;4.03;3.63;;;;;;;15.32;68.98;96862.56;4989394;28;20568;-58
2021/05/29 05:13:22;;;;;;;3.53;3.33;;;;;;;15.41;68.58;96870.94;4977578;28;20221;-59
2021/05/29 05:15:48;;;;;;;4.10;3.80;;;;;;;15.51;68.18;96857.03;4978138;28;20833;-59
2021/05/29 05:18:13;;;;;;;4.70;3.60;;;;;;;15.44;68.32;96867.78;4989996;28;20967;-60
2021/05/29 05:20:39;;;;;;;2.73;2.53;;;;;;;15.58;67.70;96870.91;4975291;28;20170;-60
2021/05/29 05:23:05;;;;;;;3.67;2.97;;;;;;;15.65;67.70;96879.47;4980423;28;20331;-62
2021/05/29 05:25:32;;;;;;;3.10;2.90;;;;;;;15.65;67.36;96871.53;4981003;28;20194;-60
2021/05/29 05:27:58;;;;;;;2.80;2.70;;;;;;;15.73;67.97;96876.41;4974800;28;20433;-58
2021/05/29 05:30:24;;;;;;;3.20;3.00;;;;;;;15.83;67.28;96876.53;4976933;28;20421;-57
2021/05/29 05:32:50;;;;;;;3.77;3.20;;;;;;;15.84;66.90;96878.13;4980935;28;20947;-58
2021/05/29 05:35:16;;;;;;;3.13;2.93;;;;;;;15.91;66.76;96871.59;4990658;28;20616;-58
2021/05/29 05:37:43;;;;;;;3.50;3.23;;;;;;;15.94;66.76;96871.09;4978264;28;20170;-59
2021/05/29 05:40:10;;;;;;;3.07;2.77;;;;;;;15.99;65.62;96876.50;4992914;28;20494;-61
2021/05/29 05:42:36;;;;;;;5.47;2.83;;;;;;;16.02;65.31;96872.53;4991981;28;20420;-61
2021/05/29 05:45:04;;;;;;;2.70;2.50;;;;;;;16.14;65.24;96881.19;4994176;28;20539;-60
2021/05/29 05:47:30;;;;;;;2.67;2.47;;;;;;;16.20;64.18;96875.66;4979868;28;20428;-61
2021/05/29 05:49:55;;;;;;;3.07;2.77;;;;;;;16.21;63.65;96879.13;4972214;28;20440;-59
2021/05/29 05:52:20;;;;;;;2.50;2.30;;;;;;;16.32;64.04;96873.69;4988443;28;20205;-61
2021/05/29 05:54:49;;;;;;;3.17;2.97;;;;;;;16.39;64.03;96874.31;4982967;28;20256;-60
2021/05/29 05:57:15;;;;;;;3.53;2.90;;;;;;;16.48;63.48;96880.00;5009344;28;20196;-60
2021/05/29 05:59:41;;;;;;;2.50;2.30;;;;;;;16.30;62.39;96883.75;4994171;28;20504;-58
2021/05/29 06:02:07;;;;;;;3.20;3.00;;;;;;;16.41;61.34;96890.75;4992937;28;20503;-58
2021/05/29 06:04:32;;;;;;;2.90;2.60;;;;;;;16.53;61.94;96889.84;4992857;28;20209;-59
2021/05/29 06:06:58;;;;;;;5.07;3.33;;;;;;;16.51;62.83;96887.44;4989169;28;20520;-60
2021/05/29 06:09:23;;;;;;;2.93;2.73;;;;;;;16.52;61.33;96896.22;4980260;28;20185;-60
2021/05/29 06:11:49;;;;;;;2.60;2.30;;;;;;;16.59;61.53;96884.34;4974914;28;20193;-60
2021/05/29 06:19:42;;;;;;;2.80;2.70;;;;;;;16.59;62.25;96897.63;4983515;28;20929;-60
2021/05/29 06:22:08;;;;;;;3.07;2.77;;;;;;;16.65;62.40;96893.94;4979733;28;20421;-60
2021/05/29 06:24:34;;;;;;;3.00;2.70;;;;;;;16.61;60.98;96890.22;4989130;28;20257;-61
2021/05/29 06:27:01;;;;;;;4.27;3.10;;;;;;;16.48;61.78;96893.25;4978228;28;20589;-59
2021/05/29 06:29:26;;;;;;;5.90;3.30;;;;;;;16.66;60.65;96886.81;4978389;28;20765;-61
2021/05/29 06:31:52;;;;;;;2.77;2.47;;;;;;;16.77;60.00;96891.16;4978680;28;20958;-61
2021/05/29 06:34:18;;;;;;;3.37;3.00;;;;;;;16.72;60.59;96893.78;4978377;28;20216;-61
2021/05/29 06:36:44;;;;;;;2.93;2.73;;;;;;;16.78;60.08;96895.41;4986848;28;20629;-61
2021/05/29 06:39:10;;;;;;;3.53;2.67;;;;;;;16.81;60.71;96898.38;4995913;28;20455;-59
2021/05/29 06:41:39;;;;;;;3.00;2.80;;;;;;;16.76;60.84;96910.81;4995529;28;20212;-62
2021/05/29 06:44:04;;;;;;;3.17;2.90;;;;;;;16.88;60.99;96909.59;4997181;28;20555;-62
2021/05/29 06:46:30;;;;;;;3.10;2.80;;;;;;;16.91;59.09;96911.72;4994928;28;20507;-61
2021/05/29 06:48:56;;;;;;;2.90;2.60;;;;;;;16.82;58.80;96913.25;4983105;28;20170;-60
2021/05/29 06:51:35;;;;;;;3.10;2.90;;;;;;;16.93;58.75;96919.44;4985874;28;20650;-62
2021/05/29 06:54:04;;;;;;;2.73;2.50;;;;;;;16.90;58.95;96920.75;4984520;28;20441;-62
2021/05/29 06:59:13;;;;;;;2.70;2.27;;;;;;;16.92;58.60;96923.16;4996878;28;20968;-61
2021/05/29 07:01:38;;;;;;;2.33;2.20;;;;;;;17.01;58.52;96929.63;4996348;28;20511;-61
2021/05/29 07:04:04;;;;;;;3.10;2.60;;;;;;;17.12;57.89;96921.47;4996426;28;20542;-62
2021/05/29 07:06:29;;;;;;;2.90;2.70;;;;;;;17.15;57.93;96920.19;4993338;28;20260;-62
2021/05/29 07:08:57;;;;;;;2.80;2.60;;;;;;;17.14;57.37;96926.53;4988530;28;20205;-60
2021/05/29 07:11:22;;;;;;;3.40;3.20;;;;;;;17.14;57.50;96923.88;4986477;28;20178;-59
2021/05/29 07:13:48;;;;;;;2.57;2.47;;;;;;;17.21;58.38;96925.28;4992606;28;20840;-62
2021/05/29 07:16:14;;;;;;;2.70;2.53;;;;;;;17.25;58.01;96929.03;4996895;28;20181;-60
2021/05/29 07:18:46;;;;;;;3.10;2.83;;;;;;;17.27;57.68;96923.47;4995164;28;20211;-62
2021/05/29 07:21:16;;;;;;;2.50;2.40;;;;;;;17.22;57.66;96924.22;4989608;28;20546;-59
2021/05/29 07:23:45;;;;;;;3.37;3.07;;;;;;;17.15;57.83;96925.50;4995647;28;20513;-59
2021/05/29 07:26:11;;;;;;;3.03;2.73;;;;;;;17.27;56.41;96920.81;4989633;28;20418;-62
2021/05/29 07:28:37;;;;;;;2.70;2.50;;;;;;;17.41;55.94;96920.13;4977395;28;20743;-62
2021/05/29 07:31:03;;;;;;;2.67;2.57;;;;;;;17.36;56.22;96916.63;4981015;28;21005;-58
2021/05/29 07:33:29;;;;;;;2.80;2.60;;;;;;;17.36;57.25;96908.66;4996169;28;20245;-58
2021/05/29 07:35:55;;;;;;;4.67;2.80;;;;;;;17.48;56.50;96907.44;4986494;28;20413;-62
2021/05/29 07:38:22;;;;;;;3.93;2.77;;;;;;;17.55;56.81;96912.56;4984518;28;20178;-57
2021/05/29 07:40:49;;;;;;;3.13;2.43;;;;;;;17.33;53.24;96909.16;4976920;28;20500;-57
2021/05/29 07:43:14;;;;;;;2.83;2.57;;;;;;;17.48;54.08;96917.28;4981831;28;20451;-62
2021/05/29 07:45:40;;;;;;;3.40;2.43;;;;;;;17.61;55.68;96910.72;4996283;28;20547;-58
2021/05/29 07:48:08;;;;;;;4.47;2.80;;;;;;;17.64;55.45;96910.22;4977085;28;20185;-63
2021/05/29 07:50:33;;;;;;;2.47;2.30;;;;;;;17.75;53.48;96914.53;4976850;28;20193;-58
2021/05/29 07:53:01;;;;;;;2.40;2.20;;;;;;;17.85;52.64;96911.91;4977241;28;20528;-58
2021/05/29 07:55:26;;;;;;;3.37;2.37;;;;;;;17.79;50.97;96908.44;4959365;28;20174;-62
2021/05/29 07:57:52;;;;;;;2.60;2.50;;;;;;;17.74;53.74;96904.94;4982383;28;20941;-63
2021/05/29 08:00:23;;;;;;;2.03;1.93;;;;;;;17.51;52.83;96897.34;4986710;28;20554;-57
2021/05/29 08:02:48;;;;;;;2.30;2.10;;;;;;;17.78;51.27;96904.19;4976219;28;20198;-58
2021/05/29 08:05:19;;;;;;;2.50;2.40;;;;;;;17.89;51.04;96900.53;4977330;28;20476;-57
2021/05/29 08:07:44;;;;;;;2.63;2.27;;;;;;;17.80;53.09;96904.72;4976986;28;20264;-62
2021/05/29 08:10:11;;;;;;;2.20;2.00;;;;;;;17.73;50.22;96901.50;4985561;28;20456;-58
2021/05/29 08:12:37;;;;;;;2.00;1.90;;;;;;;17.92;48.48;96901.84;4995303;28;20169;-63
2021/05/29 08:15:04;;;;;;;2.67;1.70;;;;;;;18.18;49.97;96909.72;4994311;28;20412;-62
2021/05/29 08:17:30;;;;;;;3.93;2.17;;;;;;;18.27;49.00;96910.00;4987927;28;20447;-58
2021/05/29 08:19:55;;;;;;;3.03;2.53;;;;;;;18.35;48.61;96914.84;4982885;28;20947;-59
2021/05/29 08:22:20;;;;;;;2.30;2.10;;;;;;;18.40;48.68;96906.88;4972350;28;20637;-59
2021/05/29 08:24:46;;;;;;;4.00;1.93;;;;;;;18.27;47.30;96912.66;4984647;28;20617;-62
2021/05/29 08:27:11;;;;;;;4.23;1.93;;;;;;;18.58;46.40;96911.75;4990513;28;20185;-61
2021/05/29 08:29:37;;;;;;;1.73;1.50;;;;;;;18.61;45.81;96905.06;4974367;28;20182;-63
2021/05/29 08:32:02;;;;;;;1.90;1.80;;;;;;;18.72;45.01;96906.69;4986859;28;20664;-58
2021/05/29 08:34:28;;;;;;;3.17;1.87;;;;;;;18.81;44.93;96908.59;4995484;28;20212;-62
2021/05/29 08:36:53;;;;;;;3.80;2.20;;;;;;;18.73;48.37;96905.66;4992626;28;20311;-63
2021/05/29 08:39:19;;;;;;;2.27;1.90;;;;;;;18.76;44.48;96915.78;4995411;28;20181;-57
2021/05/29 08:41:44;;;;;;;3.83;1.90;;;;;;;18.80;43.90;96909.66;4993381;28;20309;-57
2021/05/29 08:44:10;;;;;;;1.97;1.87;;;;;;;18.88;44.63;96919.00;4995040;28;20568;-57
2021/05/29 08:46:37;;;;;;;2.60;1.93;;;;;;;18.97;45.99;96914.75;4985215;28;20181;-58
2021/05/29 08:49:03;;;;;;;4.63;2.00;;;;;;;18.97;45.73;96910.22;4995124;28;20188;-57
2021/05/29 08:51:29;;;;;;;2.33;2.10;;;;;;;19.27;45.67;96909.44;4994293;28;20724;-57
2021/05/29 08:53:57;;;;;;;2.20;2.10;;;;;;;19.29;45.74;96918.78;4975421;28;20426;-57
2021/05/29 08:56:23;;;;;;;3.50;3.30;;;;;;;19.33;46.21;96913.75;4975598;28;20636;-62
2021/05/29 08:58:49;;;;;;;2.27;2.07;;;;;;;19.68;45.21;96915.56;4987689;28;20460;-62
2021/05/29 09:01:15;;;;;;;2.20;2.00;;;;;;;19.74;45.55;96914.47;4994711;28;20412;-57
2021/05/29 09:03:48;;;;;;;2.10;1.90;;;;;;;19.79;44.90;96917.13;4976810;28;20861;-57
2021/05/29 09:06:20;;;;;;;2.10;2.00;;;;;;;19.80;44.93;96916.88;4975277;28;20532;-62
2021/05/29 09:08:54;;;;;;;3.20;2.20;;;;;;;19.99;43.91;96915.22;4976397;28;20426;-57
2021/05/29 09:11:43;;;;;;;1.77;1.63;;;;;;;20.27;42.90;96916.50;4975389;28;20463;-62
2021/05/29 09:14:21;;;;;;;2.20;2.00;;;;;;;20.23;41.79;96915.44;4981029;28;20440;-62
2021/05/29 09:17:21;;;;;;;2.17;1.97;;;;;;;20.11;42.42;96915.72;4984143;28;20777;-58
2021/05/29 09:20:04;;;;;;;2.17;2.07;;;;;;;20.22;41.74;96917.31;4924024;28;20790;-57
2021/05/29 09:22:40;;;;;;;2.20;2.00;;;;;;;20.27;43.02;96919.97;4979944;28;20417;-62
2021/05/29 09:25:18;;;;;;;2.00;1.90;;;;;;;20.49;39.88;96919.59;4994598;28;20553;-59
2021/05/29 09:28:00;;;;;;;2.17;2.07;;;;;;;20.44;41.60;96912.44;4989924;28;20825;-57
2021/05/29 09:30:48;;;;;;;2.67;2.10;;;;;;;20.62;39.95;96918.22;4975128;28;20499;-56
2021/05/29 09:33:28;;;;;;;3.20;2.23;;;;;;;20.72;41.06;96920.84;4984664;28;20447;-58
2021/05/29 09:35:55;;;;;;;2.20;2.00;;;;;;;20.94;40.85;96922.03;4986854;28;20421;-63
2021/05/29 09:38:22;;;;;;;2.17;2.00;;;;;;;21.20;39.63;96920.00;4975033;28;20406;-59
2021/05/29 09:40:52;;;;;;;2.20;1.93;;;;;;;21.20;38.22;96922.66;4975800;28;20923;-60
2021/05/29 09:43:17;;;;;;;3.23;2.03;;;;;;;21.28;40.43;96930.91;4976652;28;20460;-59
2021/05/29 09:45:43;;;;;;;2.33;2.13;;;;;;;20.97;40.15;96928.69;4979318;28;20456;-59
2021/05/29 09:48:17;;;;;;;2.07;1.97;;;;;;;21.12;39.06;96936.66;4993835;28;20177;-61
2021/05/29 09:51:04;;;;;;;1.80;1.70;;;;;;;21.20;38.93;96942.19;4992834;28;20229;-53
2021/05/29 09:53:34;;;;;;;2.07;1.97;;;;;;;21.16;39.27;96940.38;4992153;28;20425;-57
2021/05/29 09:56:00;;;;;;;3.30;1.73;;;;;;;21.20;38.85;96944.06;4974575;28;20479;-61
2021/05/29 09:58:59;;;;;;;2.50;2.30;;;;;;;21.24;38.67;96931.75;4986055;28;20773;-74
2021/05/29 10:01:38;;;;;;;2.17;2.00;;;;;;;21.11;39.89;96938.50;4994101;28;20926;-69
2021/05/29 10:04:05;;;;;;;1.93;1.80;;;;;;;21.11;40.00;96930.50;4992003;28;20531;-59
2021/05/29 10:06:30;;;;;;;5.50;2.10;;;;;;;21.50;39.93;96933.91;4994207;28;20416;-55
2021/05/29 10:08:56;;;;;;;2.53;2.33;;;;;;;21.72;39.37;96932.69;4986470;28;20433;-64
2021/05/29 10:11:21;;;;;;;2.20;2.00;;;;;;;21.77;39.12;96929.94;4974559;28;20171;-67
2021/05/29 10:13:47;;;;;;;3.33;2.00;;;;;;;21.87;38.95;96932.56;4984728;28;20194;-61
2021/05/29 10:16:13;;;;;;;3.87;2.97;;;;;;;21.96;38.88;96934.34;4994052;28;20526;-69
2021/05/29 10:18:41;;;;;;;2.33;2.13;;;;;;;21.98;38.97;96936.72;4992386;28;20216;-67
2021/05/29 10:21:07;;;;;;;2.60;2.40;;;;;;;21.93;38.19;96926.06;4994009;28;20763;-64
2021/05/29 10:23:35;;;;;;;2.80;2.40;;;;;;;22.00;37.96;96935.38;4990917;28;20527;-56
2021/05/29 10:26:02;;;;;;;2.70;2.50;;;;;;;21.69;38.81;96934.03;4974337;28;20461;-62
2021/05/29 10:28:28;;;;;;;3.90;2.83;;;;;;;21.76;38.48;96931.81;4990718;28;20428;-57
2021/05/29 10:30:53;;;;;;;2.90;1.93;;;;;;;21.67;39.32;96935.41;4993923;28;20413;-58
2021/05/29 10:33:19;;;;;;;2.20;2.10;;;;;;;21.61;40.86;96934.66;4974111;28;20558;-60
2021/05/29 10:35:46;;;;;;;3.07;2.80;;;;;;;21.64;41.36;96941.31;4974520;28;20194;-56
2021/05/29 10:38:14;;;;;;;2.57;2.37;;;;;;;21.54;41.89;96944.09;4991499;28;20425;-59
2021/05/29 10:40:42;;;;;;;2.90;2.70;;;;;;;21.56;41.04;96944.59;4982042;28;20426;-57
2021/05/29 10:43:14;;;;;;;2.50;2.30;;;;;;;21.55;40.69;96948.34;4985113;28;20995;-65
2021/05/29 10:46:03;;;;;;;1.93;1.80;;;;;;;21.68;39.44;96939.66;4975086;28;20468;-63
2021/05/29 10:48:29;;;;;;;2.43;2.23;;;;;;;21.94;39.24;96933.03;4974091;28;20904;-54
2021/05/29 10:51:08;;;;;;;2.10;2.00;;;;;;;22.32;37.99;96940.91;4986750;28;20421;-63
2021/05/29 10:53:52;;;;;;;3.03;2.07;;;;;;;22.57;38.66;96931.00;4993248;28;20546;-60
2021/05/29 10:56:23;;;;;;;2.40;2.20;;;;;;;22.88;36.68;96924.94;4978043;28;20504;-64
2021/05/29 10:59:14;;;;;;;2.00;1.90;;;;;;;23.06;37.24;96924.13;4985395;28;20430;-63
2021/05/29 11:01:44;;;;;;;2.33;1.90;;;;;;;23.29;36.05;96920.59;4977453;28;20594;-62
2021/05/29 11:04:16;;;;;;;1.87;1.77;;;;;;;23.58;35.82;96931.13;4978281;28;21079;-62
2021/05/29 11:06:57;;;;;;;1.90;1.70;;;;;;;23.78;34.26;96928.09;4997215;28;20412;-60
2021/05/29 11:09:25;;;;;;;1.60;1.50;;;;;;;24.00;34.26;96924.75;4994706;28;20478;-54
2021/05/29 11:12:00;;;;;;;1.83;1.30;;;;;;;24.11;33.11;96921.63;4977227;28;20425;-60
2021/05/29 11:14:31;;;;;;;1.73;1.63;;;;;;;24.11;32.48;96918.13;4976656;28;20444;-60
2021/05/29 11:16:59;;;;;;;1.63;1.53;;;;;;;24.18;33.33;96916.66;4996974;28;20519;-55
2021/05/29 11:19:30;;;;;;;1.73;1.63;;;;;;;24.31;32.99;96920.44;4995127;28;20424;-59
2021/05/29 11:22:00;;;;;;;1.40;1.30;;;;;;;24.28;32.62;96918.31;4978975;28;20448;-59
2021/05/29 11:24:46;;;;;;;1.40;1.30;;;;;;;24.09;32.61;96921.13;4995588;28;20460;-61
2021/05/29 11:27:15;;;;;;;1.57;1.47;;;;;;;23.97;33.53;96917.31;4980870;28;20440;-63
2021/05/29 11:29:48;;;;;;;1.57;1.47;;;;;;;23.67;31.72;96913.25;4996491;28;20408;-59
2021/05/29 11:32:14;;;;;;;2.17;1.30;;;;;;;23.53;32.95;96908.94;4963693;28;20794;-59
2021/05/29 11:34:43;;;;;;;1.20;1.20;;;;;;;23.35;33.02;96919.41;4976876;28;20946;-57
2021/05/29 11:37:13;;;;;;;1.40;1.30;;;;;;;23.35;32.89;96922.09;4992277;28;20216;-58
2021/05/29 11:39:49;;;;;;;1.03;0.93;;;;;;;23.10;30.94;96921.69;4986438;28;20432;-57
2021/05/29 11:42:14;;;;;;;1.80;1.70;;;;;;;22.97;33.53;96919.72;4992881;28;20431;-58
2021/05/29 11:44:40;;;;;;;1.60;1.50;;;;;;;23.04;33.07;96910.25;4991149;28;21131;-57
2021/05/29 11:47:13;;;;;;;1.40;1.33;;;;;;;23.39;33.30;96916.94;4957417;28;20631;-57
2021/05/29 11:49:38;;;;;;;1.30;1.20;;;;;;;23.74;30.22;96902.94;4991015;28;20260;-57